Time;durP1;ratioP1;P1;durP2;ratioP2;P2;SDS_P1;SDS_P2;PMS_P1;PMS_P2;Temp;Humidity;BMP_temperature;BMP_pressure;BME280_temperature;BME280_humidity;BME280_pressure;Samples;Min_cycle;Max_cycle;Signal;HPM_P1;HPM_P2
2023/05/15 00:00:52;;;;;;;4.82;3.38;;;;;;;5.39;100.00;92666.91;2593976;22;20077;-85
2023/05/15 00:02:01;;;;;;;3.95;3.65;;;;;;;5.42;100.00;92663.47;2584471;22;20095;-87
2023/05/15 00:03:09;;;;;;;4.68;3.60;;;;;;;5.41;100.00;92667.28;2584096;22;20008;-86
2023/05/15 00:04:20;;;;;;;4.70;3.42;;;;;;;5.42;100.00;92666.13;2583232;22;20007;-87
2023/05/15 00:05:27;;;;;;;4.97;3.17;;;;;;;5.42;100.00;92666.13;2584408;22;20036;-86
2023/05/15 00:06:37;;;;;;;6.43;3.80;;;;;;;5.43;100.00;92667.63;2596434;22;20014;-88
2023/05/15 00:07:47;;;;;;;3.85;3.55;;;;;;;5.41;100.00;92665.38;2595165;22;20008;-87
2023/05/15 00:08:57;;;;;;;3.63;3.17;;;;;;;5.37;100.00;92662.00;2584203;22;20437;-87
2023/05/15 00:10:08;;;;;;;4.85;4.25;;;;;;;5.32;100.00;92659.78;2584887;22;20004;-87
2023/05/15 00:11:17;;;;;;;3.58;3.28;;;;;;;5.35;100.00;92656.31;2584686;22;20008;-87
2023/05/15 00:12:26;;;;;;;5.78;3.60;;;;;;;5.27;100.00;92654.91;2594442;22;20035;-89
2023/05/15 00:13:34;;;;;;;3.90;3.50;;;;;;;5.28;100.00;92659.81;2594936;22;20311;-86
2023/05/15 00:14:44;;;;;;;4.13;3.17;;;;;;;5.28;100.00;92661.72;2596457;22;20007;-88
2023/05/15 00:15:53;;;;;;;3.80;3.55;;;;;;;5.27;100.00;92654.91;2594977;22;20260;-87
2023/05/15 00:17:03;;;;;;;4.03;3.72;;;;;;;5.26;100.00;92653.38;2583805;22;20405;-87
2023/05/15 00:18:11;;;;;;;5.28;3.53;;;;;;;5.28;100.00;92657.16;2594800;22;20010;-87
2023/05/15 00:19:20;;;;;;;6.05;3.97;;;;;;;5.26;100.00;92654.13;2583343;22;20004;-86
2023/05/15 00:20:27;;;;;;;7.80;4.60;;;;;;;5.27;100.00;92654.91;2583409;22;20530;-85
2023/05/15 00:21:35;;;;;;;3.70;3.40;;;;;;;5.20;100.00;92653.06;2594004;22;20528;-86
2023/05/15 00:22:44;;;;;;;3.92;3.47;;;;;;;5.20;100.00;92653.06;2595213;22;20078;-86
2023/05/15 00:23:52;;;;;;;6.38;3.53;;;;;;;5.19;100.00;92651.56;2606950;22;20007;-86
2023/05/15 00:25:00;;;;;;;4.47;3.63;;;;;;;5.21;100.00;92648.53;2605601;22;20038;-86
2023/05/15 00:26:08;;;;;;;3.97;3.67;;;;;;;5.13;100.00;92647.06;2582854;22;20007;-85
2023/05/15 00:27:17;;;;;;;5.07;3.60;;;;;;;5.04;100.00;92650.91;2595663;22;20026;-85
2023/05/15 00:28:26;;;;;;;5.00;3.53;;;;;;;5.11;100.00;92652.78;2595052;22;20003;-84
2023/05/15 00:29:33;;;;;;;4.20;3.50;;;;;;;5.06;100.00;92655.84;2583574;22;20390;-86
2023/05/15 00:30:41;;;;;;;4.07;3.47;;;;;;;5.11;100.00;92649.38;2582473;22;20014;-88
2023/05/15 00:31:49;;;;;;;3.90;3.60;;;;;;;5.10;100.00;92650.53;2593854;22;20083;-87
2023/05/15 00:32:57;;;;;;;5.18;4.25;;;;;;;4.98;100.00;92659.69;2594707;22;20003;-85
2023/05/15 00:34:06;;;;;;;5.45;3.50;;;;;;;5.01;100.00;92657.03;2583338;22;20011;-86
2023/05/15 00:35:15;;;;;;;4.00;3.60;;;;;;;5.04;100.00;92650.19;2583560;22;20078;-86
2023/05/15 00:36:24;;;;;;;3.65;3.35;;;;;;;5.05;100.00;92652.44;2583946;22;20039;-83
2023/05/15 00:37:35;;;;;;;4.35;3.65;;;;;;;5.06;100.00;92650.56;2583899;22;20000;-84
2023/05/15 00:38:43;;;;;;;4.38;3.97;;;;;;;5.04;100.00;92650.19;2609711;22;20003;-88
2023/05/15 00:39:50;;;;;;;4.13;3.72;;;;;;;5.04;100.00;92642.97;2618460;22;19998;-85
2023/05/15 00:41:00;;;;;;;5.93;3.90;;;;;;;5.11;100.00;92652.78;2606274;22;20433;-85
2023/05/15 00:42:10;;;;;;;7.10;3.45;;;;;;;5.12;100.00;92648.97;2594351;22;20000;-85
2023/05/15 00:43:20;;;;;;;4.28;3.88;;;;;;;5.15;100.00;92642.91;2594254;22;19999;-86
2023/05/15 00:44:32;;;;;;;3.78;3.47;;;;;;;5.12;100.00;92642.94;2594241;22;20408;-85
2023/05/15 00:45:43;;;;;;;3.53;3.22;;;;;;;5.11;100.00;92646.72;2584882;22;20343;-84
2023/05/15 00:46:53;;;;;;;4.82;3.90;;;;;;;5.17;100.00;92640.59;2597195;22;20008;-87
2023/05/15 00:48:02;;;;;;;6.70;3.53;;;;;;;5.20;100.00;92641.72;2607755;22;20430;-86
2023/05/15 00:49:12;;;;;;;4.20;3.80;;;;;;;5.25;100.00;92639.38;2618373;22;20077;-84
2023/05/15 00:50:22;;;;;;;3.75;3.45;;;;;;;5.27;100.00;92646.97;2605540;22;20003;-84
2023/05/15 00:51:31;;;;;;;3.97;3.67;;;;;;;5.28;100.00;92638.63;2594686;22;20361;-84
2023/05/15 00:52:40;;;;;;;3.78;3.47;;;;;;;5.32;100.00;92645.78;2583540;22;20004;-87
2023/05/15 00:53:53;;;;;;;4.20;3.90;;;;;;;5.29;100.00;92637.47;2583319;22;20038;-85
2023/05/15 00:55:02;;;;;;;4.47;3.95;;;;;;;5.39;100.00;92643.03;2585647;22;20010;-89
2023/05/15 00:56:13;;;;;;;3.83;3.53;;;;;;;5.46;100.00;92641.09;2594787;22;20470;-85
2023/05/15 00:57:24;;;;;;;4.32;3.60;;;;;;;5.47;100.00;92644.47;2584565;22;20014;-85
2023/05/15 00:58:32;;;;;;;3.90;3.50;;;;;;;5.45;100.00;92642.25;2597238;22;20042;-85
2023/05/15 00:59:42;;;;;;;4.10;3.80;;;;;;;5.40;100.00;92641.91;2606682;22;20060;-84
2023/05/15 01:00:55;;;;;;;3.65;3.35;;;;;;;5.49;100.00;92644.84;2593610;22;20006;-84
2023/05/15 01:02:02;;;;;;;4.03;3.65;;;;;;;5.49;100.00;92645.59;2594970;22;20362;-87
2023/05/15 01:03:12;;;;;;;4.30;3.80;;;;;;;5.50;100.00;92641.06;2595933;22;20006;-87
2023/05/15 01:04:21;;;;;;;7.70;4.03;;;;;;;5.51;100.00;92639.91;2594536;22;20018;-85
2023/05/15 01:05:31;;;;;;;5.75;3.80;;;;;;;5.45;100.00;92639.59;2596680;22;20398;-89
2023/05/15 01:06:40;;;;;;;3.83;3.53;;;;;;;5.46;100.00;92635.78;2595176;22;20447;-85
2023/05/15 01:08:08;;;;;;;4.13;3.70;;;;;;;5.44;100.00;92639.97;2594399;22;20383;-87
2023/05/15 01:09:18;;;;;;;3.63;3.33;;;;;;;5.48;100.00;92638.78;2598510;22;20430;-86
2023/05/15 01:10:27;;;;;;;4.10;3.80;;;;;;;5.39;100.00;92640.41;2594708;22;20003;-88
2023/05/15 01:11:38;;;;;;;3.72;3.42;;;;;;;5.39;100.00;92635.09;2596932;22;20030;-87
2023/05/15 01:12:48;;;;;;;4.72;3.40;;;;;;;5.41;100.00;92638.88;2607745;22;20007;-86
2023/05/15 01:13:53;;;;;;;;;;;;;;;5.42;100.00;92640.38;2594991;22;20339;-86
2023/05/15 01:15:00;;;;;;;4.18;3.67;;;;;;;5.42;100.00;92635.06;2594674;22;19903;-86
2023/05/15 01:16:10;;;;;;;3.75;3.45;;;;;;;5.38;100.00;92637.00;2606779;22;20087;-85
2023/05/15 01:17:20;;;;;;;4.07;3.67;;;;;;;5.42;100.00;92627.13;2594706;22;20004;-86
2023/05/15 01:18:31;;;;;;;5.82;3.70;;;;;;;5.47;100.00;92639.94;2594383;22;20106;-87
2023/05/15 01:19:41;;;;;;;3.95;3.65;;;;;;;5.55;100.00;92644.00;2594664;22;20030;-86
2023/05/15 01:21:03;;;;;;;;;;;;;;;5.53;100.00;92635.72;2584405;22;20424;-88
2023/05/15 01:22:29;;;;;;;3.55;3.30;;;;;;;5.54;100.00;92639.88;2614300;22;19938;-88
2023/05/15 01:23:51;;;;;;;4.00;3.70;;;;;;;5.57;100.00;92638.31;2618229;22;20010;-88
2023/05/15 01:25:35;;;;;;;5.05;4.10;;;;;;;5.55;100.00;92641.38;2597889;22;20137;-88
2023/05/15 01:27:12;;;;;;;3.83;3.42;;;;;;;5.62;100.00;92634.47;2598094;22;20437;-86
2023/05/15 01:28:30;;;;;;;3.97;3.60;;;;;;;5.68;100.00;92633.66;2595463;22;20003;-86
2023/05/15 01:29:52;;;;;;;4.57;4.13;;;;;;;5.68;100.00;92643.50;2587474;22;20423;-86
2023/05/15 01:31:07;;;;;;;3.80;3.50;;;;;;;5.71;100.00;92640.06;2601241;22;20015;-88
2023/05/15 01:32:36;;;;;;;4.30;3.90;;;;;;;5.71;100.00;92656.00;2605408;22;20011;-86
2023/05/15 01:33:47;;;;;;;4.03;3.72;;;;;;;5.77;100.00;92657.03;2604684;22;20003;-86
2023/05/15 01:35:20;;;;;;;3.90;3.60;;;;;;;5.79;100.00;92644.13;2607673;22;19999;-85
2023/05/15 01:36:46;;;;;;;4.40;4.10;;;;;;;5.83;100.00;92658.09;2599253;22;20366;-85
2023/05/15 01:38:06;;;;;;;6.82;4.07;;;;;;;5.88;100.00;92657.66;2590237;22;20475;-86
2023/05/15 01:39:13;;;;;;;4.65;4.22;;;;;;;5.94;100.00;92658.78;2587903;22;20019;-85
2023/05/15 01:40:25;;;;;;;4.20;3.72;;;;;;;6.01;100.00;92661.34;2594232;22;20447;-88
2023/05/15 01:41:53;;;;;;;4.97;3.78;;;;;;;6.13;100.00;92659.31;2584484;22;20004;-85
2023/05/15 01:43:09;;;;;;;9.95;4.03;;;;;;;6.33;100.00;92656.78;2604227;22;20085;-85
2023/05/15 01:44:20;;;;;;;4.28;3.88;;;;;;;6.56;100.00;92654.19;2595545;22;20004;-86
2023/05/15 01:45:31;;;;;;;5.65;3.88;;;;;;;6.56;100.00;92657.59;2583826;22;20046;-84
2023/05/15 01:46:45;;;;;;;8.02;3.63;;;;;;;6.69;100.00;92655.13;2594451;22;20533;-86
2023/05/15 01:47:55;;;;;;;4.35;3.90;;;;;;;6.78;100.00;92652.72;2585629;22;20019;-85
2023/05/15 01:49:06;;;;;;;4.32;3.92;;;;;;;6.80;100.00;92655.75;2583016;22;20004;-86
2023/05/15 01:50:18;;;;;;;7.63;3.83;;;;;;;6.80;100.00;92647.78;2607012;22;20025;-86
2023/05/15 01:51:28;;;;;;;5.53;3.58;;;;;;;6.77;100.00;92642.50;2607647;22;20372;-84
2023/05/15 01:52:32;;;;;;;5.10;3.90;;;;;;;6.73;100.00;92645.22;2606700;22;20456;-85
2023/05/15 01:53:35;;;;;;;4.10;3.70;;;;;;;6.75;100.00;92639.50;2593494;22;20398;-85
2023/05/15 01:54:37;;;;;;;5.22;4.25;;;;;;;6.87;100.00;92641.59;2592940;22;20007;-84
2023/05/15 01:55:46;;;;;;;4.40;3.83;;;;;;;6.86;100.00;92639.34;2580118;22;20334;-83
2023/05/15 01:56:57;;;;;;;4.20;3.65;;;;;;;6.78;100.00;92641.34;2583134;22;20395;-85
2023/05/15 01:58:06;;;;;;;4.20;3.80;;;;;;;6.85;100.00;92645.78;2583947;22;20012;-85
2023/05/15 01:59:18;;;;;;;4.43;3.72;;;;;;;6.91;100.00;92638.88;2583051;22;20414;-85
2023/05/15 02:00:28;;;;;;;7.63;3.90;;;;;;;6.95;100.00;92637.66;2597282;22;20422;-84
2023/05/15 02:01:37;;;;;;;4.38;3.97;;;;;;;6.96;100.00;92638.41;2594440;22;20467;-86
2023/05/15 02:02:45;;;;;;;7.75;4.10;;;;;;;6.93;100.00;92634.66;2583251;22;20008;-84
2023/05/15 02:03:55;;;;;;;6.65;3.80;;;;;;;6.94;100.00;92632.75;2594785;22;20007;-83
2023/05/15 02:05:01;;;;;;;4.38;3.97;;;;;;;7.06;100.00;92629.50;2618285;22;20080;-86
2023/05/15 02:06:10;;;;;;;4.93;4.28;;;;;;;7.04;100.00;92629.94;2593559;22;20007;-86
2023/05/15 02:07:19;;;;;;;4.55;3.58;;;;;;;7.19;100.00;92633.09;2594199;22;19999;-85
2023/05/15 02:08:29;;;;;;;4.32;3.92;;;;;;;7.19;100.00;92624.38;2583561;22;20528;-86
2023/05/15 02:09:37;;;;;;;4.30;3.90;;;;;;;7.16;100.00;92627.84;2596165;22;19999;-85
2023/05/15 02:10:50;;;;;;;4.70;4.10;;;;;;;7.16;100.00;92631.25;2593971;22;20012;-84
2023/05/15 02:12:03;;;;;;;5.57;3.75;;;;;;;7.03;100.00;92630.34;2595110;22;20004;-85
2023/05/15 02:13:14;;;;;;;5.65;3.55;;;;;;;7.01;100.00;92629.97;2584698;22;20094;-85
2023/05/15 02:14:28;;;;;;;4.10;3.70;;;;;;;6.95;100.00;92635.00;2591758;22;20004;-84
2023/05/15 02:15:40;;;;;;;6.03;4.03;;;;;;;6.90;100.00;92632.81;2605265;22;19998;-84
2023/05/15 02:16:50;;;;;;;4.25;3.85;;;;;;;6.90;100.00;92634.72;2595436;22;20004;-84
2023/05/15 02:17:59;;;;;;;4.68;3.63;;;;;;;6.88;100.00;92637.75;2594232;22;20007;-83
2023/05/15 02:21:41;;;;;;;;;;;;;;;6.74;100.00;92622.81;2133296;27;20620;-79
2023/05/15 02:26:21;;;;;;;3.58;3.28;;;;;;;6.73;100.00;92615.25;2086246;28;20106;-78
2023/05/15 03:10:26;;;;;;;6.70;5.20;;;;;;;6.84;100.00;92615.06;2067467;28;20034;-81
2023/05/15 03:12:17;;;;;;;5.93;4.95;;;;;;;6.81;100.00;92612.06;2063780;28;20151;-77
2023/05/15 03:13:27;;;;;;;;;;;;;;;6.80;100.00;92623.09;2023722;29;20498;-77
2023/05/15 03:14:33;;;;;;;7.70;4.90;;;;;;;6.82;100.00;92620.78;2028875;29;20504;-79
2023/05/15 03:15:45;;;;;;;8.23;5.50;;;;;;;6.80;100.00;92615.91;2041386;28;20043;-76
2023/05/15 03:16:54;;;;;;;6.32;5.45;;;;;;;6.80;100.00;92618.56;2086486;28;20033;-76
2023/05/15 03:18:04;;;;;;;6.20;5.28;;;;;;;6.84;100.00;92620.38;2084059;28;20040;-78
2023/05/15 03:19:28;;;;;;;;;;;;;;;6.83;100.00;92611.66;2106125;28;20040;-79
2023/05/15 03:20:38;;;;;;;8.32;4.88;;;;;;;6.88;100.00;92611.19;2114743;27;20005;-75
2023/05/15 03:21:55;;;;;;;7.22;5.68;;;;;;;6.90;100.00;92611.56;2125638;27;20540;-78
2023/05/15 03:23:36;;;;;;;8.43;6.35;;;;;;;6.92;100.00;92611.91;2118457;28;20038;-79
2023/05/15 03:25:02;;;;;;;6.50;5.90;;;;;;;6.91;100.00;92607.75;2119728;27;20075;-76
2023/05/15 03:26:10;;;;;;;6.45;5.75;;;;;;;6.94;100.00;92606.19;2110839;28;20794;-78
2023/05/15 03:27:23;;;;;;;11.73;6.00;;;;;;;6.94;100.00;92606.19;2119301;27;20043;-76
2023/05/15 03:28:31;;;;;;;8.65;6.22;;;;;;;6.95;100.00;92605.03;2119634;27;20023;-78
2023/05/15 03:29:38;;;;;;;6.70;6.07;;;;;;;6.93;100.00;92605.41;2117448;27;20381;-77
2023/05/15 03:30:47;;;;;;;7.38;6.65;;;;;;;6.94;100.00;92593.66;2112276;28;20424;-79
2023/05/15 03:31:59;;;;;;;8.85;6.90;;;;;;;6.95;100.00;92600.47;2113239;28;20023;-77
2023/05/15 03:33:06;;;;;;;8.23;6.13;;;;;;;6.97;100.00;92600.81;2109018;28;20500;-76
2023/05/15 03:34:13;;;;;;;9.07;6.78;;;;;;;6.94;100.00;92601.63;2109004;28;20456;-77
2023/05/15 03:35:34;;;;;;;8.85;6.38;;;;;;;6.95;100.00;92608.44;2103105;28;20115;-77
2023/05/15 03:36:45;;;;;;;11.23;6.55;;;;;;;7.06;100.00;92609.00;2110349;27;20035;-77
2023/05/15 03:37:54;;;;;;;10.85;6.57;;;;;;;7.14;100.00;92606.22;2110515;28;20081;-79
2023/05/15 03:39:51;;;;;;;10.90;6.82;;;;;;;7.10;100.00;92600.97;2110142;27;20556;-77
2023/05/15 03:40:41;;;;;;;7.03;6.32;;;;;;;7.00;100.00;92607.97;2108321;27;20035;-77
2023/05/15 03:41:49;;;;;;;7.95;6.20;;;;;;;7.01;100.00;92598.84;2111807;27;20111;-77
2023/05/15 03:42:57;;;;;;;8.63;6.72;;;;;;;6.98;100.00;92607.63;2109863;28;20408;-77
2023/05/15 03:44:05;;;;;;;9.75;6.93;;;;;;;7.01;100.00;92606.81;2109716;27;20069;-76
2023/05/15 03:45:15;;;;;;;8.98;6.80;;;;;;;6.97;100.00;92608.78;2110661;27;20088;-79
2023/05/15 03:46:24;;;;;;;9.52;6.60;;;;;;;6.96;100.00;92601.22;2104352;28;20019;-79
2023/05/15 03:47:32;;;;;;;11.55;7.25;;;;;;;6.98;100.00;92604.22;2105036;28;20036;-76
2023/05/15 03:48:41;;;;;;;11.88;6.95;;;;;;;6.92;100.00;92605.84;2105915;28;20032;-78
2023/05/15 03:49:50;;;;;;;10.90;7.28;;;;;;;6.92;100.00;92606.59;2113784;27;20031;-78
2023/05/15 03:50:59;;;;;;;8.48;6.88;;;;;;;6.90;100.00;92606.25;2108237;28;20046;-80
2023/05/15 03:52:09;;;;;;;7.78;6.93;;;;;;;6.88;100.00;92610.44;2101712;28;20028;-77
2023/05/15 03:53:18;;;;;;;10.07;7.00;;;;;;;6.88;100.00;92602.47;2095150;28;20044;-78
2023/05/15 03:54:35;;;;;;;7.65;6.95;;;;;;;6.86;100.00;92597.59;2097721;28;20032;-77
2023/05/15 03:55:42;;;;;;;8.23;7.35;;;;;;;6.88;100.00;92599.81;2107310;27;20035;-79
2023/05/15 03:56:51;;;;;;;8.05;6.90;;;;;;;6.92;100.00;92600.53;2113299;27;20456;-77
2023/05/15 03:57:58;;;;;;;8.55;7.68;;;;;;;6.89;100.00;92603.97;2103679;28;20047;-80
2023/05/15 03:59:08;;;;;;;11.48;7.88;;;;;;;6.90;100.00;92600.94;2097361;28;20032;-78
2023/05/15 04:00:17;;;;;;;10.13;7.07;;;;;;;6.88;100.00;92602.47;2105210;27;20043;-78
2023/05/15 04:01:25;;;;;;;8.00;7.20;;;;;;;6.89;100.00;92602.09;2104919;28;20054;-77
2023/05/15 04:02:35;;;;;;;12.30;8.35;;;;;;;6.88;100.00;92605.88;2097209;28;20031;-80
2023/05/15 04:03:42;;;;;;;8.07;7.15;;;;;;;6.89;100.00;92602.09;2107014;27;20114;-79
2023/05/15 04:04:51;;;;;;;9.73;7.60;;;;;;;6.92;100.00;92603.19;2113219;27;20114;-78
2023/05/15 04:05:59;;;;;;;9.00;7.47;;;;;;;6.91;100.00;92605.09;2105119;28;20287;-78
2023/05/15 04:07:06;;;;;;;;;;;;;;;6.93;100.00;92599.38;2099509;28;20633;-78
2023/05/15 04:08:15;;;;;;;7.97;6.97;;;;;;;6.92;100.00;92601.28;2109157;27;19915;-77
2023/05/15 04:09:29;;;;;;;9.40;7.25;;;;;;;6.95;100.00;92600.47;2119116;27;20035;-78
2023/05/15 04:10:38;;;;;;;9.10;7.15;;;;;;;6.96;100.00;92601.22;2121186;27;20430;-78
2023/05/15 04:12:14;;;;;;;11.57;7.82;;;;;;;6.92;100.00;92600.53;2115464;27;20047;-77
2023/05/15 04:13:22;;;;;;;11.52;7.88;;;;;;;6.92;100.00;92598.63;2117021;27;20035;-77
2023/05/15 04:14:27;;;;;;;15.27;9.00;;;;;;;6.95;100.00;92602.38;2108406;28;20039;-76
2023/05/15 04:15:36;;;;;;;10.73;8.57;;;;;;;6.95;100.00;92600.47;2120448;27;20031;-77
2023/05/15 04:16:45;;;;;;;10.90;8.35;;;;;;;6.98;100.00;92601.56;2121056;27;20102;-77
2023/05/15 04:17:55;;;;;;;11.93;8.25;;;;;;;6.97;100.00;92603.47;2117370;27;20472;-78
2023/05/15 04:19:02;;;;;;;14.68;8.77;;;;;;;7.04;100.00;92607.91;2116323;27;20023;-77
2023/05/15 04:20:10;;;;;;;11.98;8.48;;;;;;;7.07;100.00;92605.22;2109536;27;20063;-78
2023/05/15 04:21:19;;;;;;;12.82;8.88;;;;;;;7.07;100.00;92601.81;2108786;28;20028;-76
2023/05/15 04:22:32;;;;;;;11.48;8.07;;;;;;;7.11;100.00;92604.38;2110309;27;20043;-77
2023/05/15 04:23:44;;;;;;;11.88;9.15;;;;;;;7.08;100.00;92600.63;2120212;27;20484;-78
2023/05/15 04:24:53;;;;;;;12.02;9.40;;;;;;;7.07;100.00;92602.56;2111726;28;20034;-77
2023/05/15 04:26:12;;;;;;;12.13;9.30;;;;;;;7.11;100.00;92596.41;2095014;28;20082;-79
2023/05/15 04:27:22;;;;;;;10.55;8.70;;;;;;;7.16;100.00;92602.03;2108638;27;20529;-76
2023/05/15 04:28:31;;;;;;;14.45;9.45;;;;;;;7.18;100.00;92606.94;2117288;27;20035;-80
2023/05/15 04:29:39;;;;;;;15.30;9.52;;;;;;;7.20;100.00;92607.25;2108318;28;20123;-77
2023/05/15 04:30:49;;;;;;;10.40;8.98;;;;;;;7.21;100.00;92604.22;2096406;27;20881;-79
2023/05/15 04:31:59;;;;;;;11.55;9.52;;;;;;;7.17;100.00;92600.88;2114577;27;20117;-77
2023/05/15 04:33:09;;;;;;;12.00;9.57;;;;;;;7.22;100.00;92602.31;2118327;27;20039;-77
2023/05/15 04:34:18;;;;;;;13.40;9.70;;;;;;;7.21;100.00;92600.81;2107956;28;20055;-77
2023/05/15 04:35:25;;;;;;;14.30;9.70;;;;;;;7.20;100.00;92600.06;2093994;28;20043;-77
2023/05/15 04:36:34;;;;;;;14.32;9.15;;;;;;;7.25;100.00;92606.81;2101470;28;20040;-77
2023/05/15 04:37:44;;;;;;;12.65;9.18;;;;;;;7.28;100.00;92603.31;2109541;27;20031;-77
2023/05/15 04:38:52;;;;;;;12.82;9.52;;;;;;;7.28;100.00;92600.66;2109880;27;20074;-78
2023/05/15 04:40:05;;;;;;;11.48;8.95;;;;;;;7.26;100.00;92603.00;2117097;27;20043;-77
2023/05/15 04:41:18;;;;;;;11.57;8.95;;;;;;;7.27;100.00;92605.22;2105333;28;20032;-77
2023/05/15 04:42:40;;;;;;;10.70;8.80;;;;;;;7.38;100.00;92604.31;2102332;28;20530;-78
2023/05/15 04:44:26;;;;;;;9.25;8.32;;;;;;;7.35;100.00;92607.78;2104100;28;20044;-79
2023/05/15 04:46:03;;;;;;;10.20;7.70;;;;;;;7.39;100.00;92609.22;2102913;28;20086;-79
2023/05/15 04:47:48;;;;;;;13.15;8.45;;;;;;;7.38;100.00;92604.31;2103061;28;20055;-82
2023/05/15 04:49:42;;;;;;;11.82;8.93;;;;;;;7.41;100.00;92608.78;2109789;28;20684;-78
2023/05/15 04:51:29;;;;;;;10.48;8.35;;;;;;;7.47;100.00;92609.84;2082507;28;20053;-78
2023/05/15 04:53:42;;;;;;;9.77;8.02;;;;;;;7.48;100.00;92611.34;2059215;28;20046;-78
2023/05/15 04:54:46;;;;;;;13.82;10.77;;;;;;;7.52;100.00;92615.44;2105268;27;20036;-78
2023/05/15 04:55:50;;;;;;;15.70;11.10;;;;;;;7.57;100.00;92612.28;2107937;28;20036;-79
2023/05/15 04:56:58;;;;;;;19.05;12.95;;;;;;;7.57;100.00;92617.59;2096381;28;20036;-79
2023/05/15 04:58:08;;;;;;;19.70;12.05;;;;;;;7.57;100.00;92614.94;2096015;28;20032;-83
2023/05/15 04:59:12;;;;;;;19.98;12.35;;;;;;;7.60;100.00;92620.63;2095122;28;20392;-82
2023/05/15 05:00:14;;;;;;;17.10;12.15;;;;;;;7.62;100.00;92618.28;2101950;28;20111;-78
2023/05/15 05:01:16;;;;;;;18.60;12.32;;;;;;;7.63;100.00;92612.56;2099277;28;20901;-81
2023/05/15 05:02:21;;;;;;;15.98;11.30;;;;;;;7.68;100.00;92614.00;2102487;28;20087;-78
2023/05/15 05:03:22;;;;;;;15.73;11.07;;;;;;;7.66;100.00;92617.06;2103493;28;20123;-78
2023/05/15 05:04:29;;;;;;;12.85;10.25;;;;;;;7.70;100.00;92619.66;2104046;28;20055;-78
2023/05/15 05:05:32;;;;;;;13.73;10.00;;;;;;;7.72;100.00;92622.66;2105100;28;20127;-79
2023/05/15 05:06:34;;;;;;;15.00;10.23;;;;;;;7.78;100.00;92626.34;2092220;28;20029;-78
2023/05/15 05:08:02;;;;;;;15.68;10.05;;;;;;;7.76;100.00;92624.09;2102373;28;20135;-79
2023/05/15 05:09:15;;;;;;;14.57;10.32;;;;;;;7.78;100.00;92621.78;2108748;27;20058;-78
2023/05/15 05:10:16;;;;;;;16.17;10.52;;;;;;;7.79;100.00;92617.22;2113173;27;20096;-78
2023/05/15 05:11:17;;;;;;;11.43;9.23;;;;;;;7.88;100.00;92619.31;2110123;28;20034;-77
2023/05/15 05:12:18;;;;;;;13.80;10.70;;;;;;;7.88;100.00;92620.06;2116789;28;20035;-77
2023/05/15 05:13:19;;;;;;;15.27;10.75;;;;;;;7.93;100.00;92624.16;2119669;27;20053;-81
2023/05/15 05:14:23;;;;;;;11.43;9.75;;;;;;;7.93;100.00;92619.59;2114478;28;20059;-78
2023/05/15 05:15:45;;;;;;;13.82;11.45;;;;;;;7.94;100.00;92613.09;2124779;27;20058;-80
2023/05/15 05:17:27;;;;;;;15.20;9.93;;;;;;;7.89;100.00;92621.56;2109885;28;20040;-80
2023/05/15 05:18:38;;;;;;;16.23;10.45;;;;;;;7.96;100.00;92618.78;2093452;28;20064;-78
2023/05/15 05:21:46;;;;;;;13.25;9.32;;;;;;;8.08;100.00;92623.47;2063823;28;20077;-78
2023/05/15 05:22:47;;;;;;;14.52;10.10;;;;;;;8.11;100.00;92626.47;2080277;28;20036;-77
2023/05/15 05:24:03;;;;;;;14.38;9.77;;;;;;;8.15;100.00;92624.47;2075566;28;20044;-78
2023/05/15 05:25:23;;;;;;;13.07;10.07;;;;;;;8.20;100.00;92618.66;2105045;28;20024;-82
2023/05/15 05:27:21;;;;;;;13.38;10.13;;;;;;;8.25;100.00;92623.50;2112090;27;20583;-77
2023/05/15 05:29:46;;;;;;;;;;;;;;;;;;;;;
2023/05/15 05:31:29;;;;;;;;;;;;;;;;;;;;;
2023/05/15 05:33:01;;;;;;;11.13;8.38;;;;;;;8.46;100.00;92622.34;2066093;28;19918;-77
2023/05/15 05:34:27;;;;;;;11.73;8.88;;;;;;;8.44;100.00;92625.41;2038855;28;20962;-78
2023/05/15 05:40:31;;;;;;;;;;;;;;;;;;;;;
2023/05/15 05:41:40;;;;;;;10.38;8.18;;;;;;;8.62;100.00;92621.63;2026723;29;20078;-79
2023/05/15 05:43:02;;;;;;;15.88;8.20;;;;;;;8.56;100.00;92621.38;2021774;29;20044;-78
2023/05/15 05:44:03;;;;;;;10.55;7.63;;;;;;;8.60;100.00;92622.00;2025867;28;20036;-77
2023/05/15 05:45:13;;;;;;;10.88;7.85;;;;;;;8.68;100.00;92628.69;2035811;29;20050;-79
2023/05/15 05:46:17;;;;;;;13.82;8.27;;;;;;;8.67;100.00;92627.19;2054748;28;20042;-77
2023/05/15 05:47:21;;;;;;;10.23;7.78;;;;;;;8.65;100.00;92626.88;2071150;28;20049;-79
2023/05/15 05:48:32;;;;;;;10.15;8.23;;;;;;;8.63;100.00;92623.84;2074184;27;20516;-78
2023/05/15 05:49:33;;;;;;;18.60;9.18;;;;;;;8.59;100.00;92628.50;2102617;28;20028;-77
2023/05/15 05:50:39;;;;;;;10.25;8.00;;;;;;;8.63;100.00;92623.84;2098153;28;20441;-77
2023/05/15 05:51:41;;;;;;;11.20;8.38;;;;;;;8.69;100.00;92624.88;2090750;28;20029;-78
2023/05/15 05:52:42;;;;;;;14.05;9.38;;;;;;;8.71;100.00;92625.19;2105841;28;20032;-77
2023/05/15 05:54:13;;;;;;;10.00;8.07;;;;;;;8.83;100.00;92627.22;2114281;27;20039;-78
2023/05/15 05:55:19;;;;;;;14.10;8.80;;;;;;;8.83;100.00;92634.47;2099692;28;20047;-78
2023/05/15 05:56:22;;;;;;;9.05;7.93;;;;;;;8.90;100.00;92628.94;2107282;28;20135;-78
2023/05/15 05:57:23;;;;;;;9.93;7.95;;;;;;;8.88;100.00;92628.63;2116809;27;20038;-77
2023/05/15 05:58:25;;;;;;;13.30;9.50;;;;;;;8.92;100.00;92628.56;2109535;28;20034;-78
2023/05/15 05:59:26;;;;;;;12.88;9.40;;;;;;;8.93;100.00;92633.47;2107130;28;20032;-77
2023/05/15 06:00:27;;;;;;;12.23;8.75;;;;;;;8.95;100.00;92633.03;2107782;28;20030;-78
2023/05/15 06:01:28;;;;;;;12.18;8.80;;;;;;;8.95;100.00;92631.09;2108250;28;20031;-77
2023/05/15 06:02:29;;;;;;;12.45;9.07;;;;;;;8.97;100.00;92634.13;2104867;28;20027;-78
2023/05/15 06:03:31;;;;;;;10.70;8.63;;;;;;;9.01;100.00;92632.13;2107693;28;20031;-76
2023/05/15 06:04:32;;;;;;;11.80;9.07;;;;;;;9.03;100.00;92639.69;2113423;27;20035;-76
2023/05/15 06:05:37;;;;;;;11.32;8.77;;;;;;;9.04;100.00;92633.97;2107283;27;20475;-77
2023/05/15 06:06:40;;;;;;;11.75;9.38;;;;;;;9.15;100.00;92636.38;2108764;28;20059;-78
2023/05/15 06:07:42;;;;;;;9.75;8.60;;;;;;;9.10;100.00;92634.22;2116679;27;20066;-78
2023/05/15 06:08:42;;;;;;;11.82;9.05;;;;;;;9.10;100.00;92633.47;2117968;27;20508;-76
2023/05/15 06:09:44;;;;;;;11.68;9.18;;;;;;;9.11;100.00;92637.63;2113951;28;20027;-79
2023/05/15 06:10:45;;;;;;;15.38;9.32;;;;;;;9.20;100.00;92637.78;2115108;27;20024;-77
2023/05/15 06:11:46;;;;;;;13.18;9.27;;;;;;;9.22;100.00;92633.53;2115274;27;20024;-77
2023/05/15 06:12:47;;;;;;;15.77;8.98;;;;;;;9.23;100.00;92636.94;2116524;27;20023;-76
2023/05/15 06:13:50;;;;;;;13.35;9.35;;;;;;;9.29;100.00;92636.00;2108095;28;20077;-76
2023/05/15 06:14:52;;;;;;;13.65;9.48;;;;;;;9.31;100.00;92633.69;2100993;28;20036;-76
2023/05/15 06:15:54;;;;;;;14.45;9.55;;;;;;;9.30;100.00;92640.16;2106234;28;20070;-78
2023/05/15 06:16:56;;;;;;;19.77;10.20;;;;;;;9.34;100.00;92637.41;2113725;27;20027;-78
2023/05/15 06:17:57;;;;;;;13.68;9.65;;;;;;;9.38;100.00;92632.75;2119428;28;20035;-76
2023/05/15 06:19:03;;;;;;;12.02;9.95;;;;;;;9.24;100.00;92641.09;2113490;28;20564;-78
2023/05/15 06:20:08;;;;;;;12.88;10.30;;;;;;;9.38;100.00;92635.41;2118938;28;20052;-78
2023/05/15 06:21:09;;;;;;;15.43;11.40;;;;;;;9.46;100.00;92642.06;2109462;28;20067;-77
2023/05/15 06:22:10;;;;;;;17.90;11.13;;;;;;;9.35;100.00;92633.59;2110614;28;20561;-77
2023/05/15 06:23:11;;;;;;;16.98;11.25;;;;;;;9.41;100.00;92636.50;2114958;27;20028;-77
2023/05/15 06:24:13;;;;;;;15.85;12.68;;;;;;;9.30;100.00;92645.50;2113979;27;20368;-79
2023/05/15 06:25:14;;;;;;;14.65;11.23;;;;;;;9.35;100.00;92644.28;2106138;28;20040;-79
2023/05/15 06:26:15;;;;;;;15.45;11.18;;;;;;;9.43;100.00;92640.25;2104102;28;20035;-80
2023/05/15 06:27:23;;;;;;;15.95;10.00;;;;;;;9.47;100.00;92638.22;2105697;28;20834;-79
2023/05/15 06:28:36;;;;;;;20.83;9.88;;;;;;;9.50;100.00;92637.41;2095327;28;20024;-80
2023/05/15 06:30:16;;;;;;;13.23;9.60;;;;;;;9.52;100.00;92642.31;2099320;28;20055;-78
2023/05/15 06:31:20;;;;;;;14.75;9.68;;;;;;;9.53;100.00;92647.25;2106632;28;20050;-79
2023/05/15 06:32:38;;;;;;;14.35;9.13;;;;;;;9.56;100.00;92642.97;2106304;28;20111;-79
2023/05/15 06:38:43;;;;;;;14.98;11.27;;;;;;;9.84;100.00;92649.50;2052365;28;20789;-79